sensor_id;sensor_type;location;lat;lon;timestamp;temperature;humidity
78793;SHT31;68134;51.984;5.652;2023-04-15T00:02:24;11.3;52.4
78793;SHT31;68134;51.984;5.652;2023-04-15T00:04:54;11.3;52.1
78793;SHT31;68134;51.984;5.652;2023-04-15T00:07:24;11.3;52.3
78793;SHT31;68134;51.984;5.652;2023-04-15T00:09:54;11.3;52.4
78793;SHT31;68134;51.984;5.652;2023-04-15T00:12:24;11.2;52.1
78793;SHT31;68134;51.984;5.652;2023-04-15T00:14:54;11.2;52.3
78793;SHT31;68134;51.984;5.652;2023-04-15T00:17:25;11.2;52.6
78793;SHT31;68134;51.984;5.652;2023-04-15T00:19:55;11.2;52.3
78793;SHT31;68134;51.984;5.652;2023-04-15T00:22:26;11.1;52.5
78793;SHT31;68134;51.984;5.652;2023-04-15T00:24:56;11.1;53.0
78793;SHT31;68134;51.984;5.652;2023-04-15T00:27:25;11.1;52.7
78793;SHT31;68134;51.984;5.652;2023-04-15T00:29:56;11.1;52.8
78793;SHT31;68134;51.984;5.652;2023-04-15T00:32:25;11.1;53.2
78793;SHT31;68134;51.984;5.652;2023-04-15T00:34:55;11.0;52.9
78793;SHT31;68134;51.984;5.652;2023-04-15T00:37:25;11.0;53.5
78793;SHT31;68134;51.984;5.652;2023-04-15T00:39:54;11.0;53.4
78793;SHT31;68134;51.984;5.652;2023-04-15T00:42:24;11.0;53.9
78793;SHT31;68134;51.984;5.652;2023-04-15T00:44:54;10.9;53.5
78793;SHT31;68134;51.984;5.652;2023-04-15T00:47:26;10.9;53.9
78793;SHT31;68134;51.984;5.652;2023-04-15T00:49:58;10.9;53.8
78793;SHT31;68134;51.984;5.652;2023-04-15T00:52:27;10.9;53.8
78793;SHT31;68134;51.984;5.652;2023-04-15T00:54:59;10.8;54.1
78793;SHT31;68134;51.984;5.652;2023-04-15T00:57:31;10.8;54.2
78793;SHT31;68134;51.984;5.652;2023-04-15T01:00:04;10.8;54.3
78793;SHT31;68134;51.984;5.652;2023-04-15T01:02:35;10.8;54.3
78793;SHT31;68134;51.984;5.652;2023-04-15T01:05:05;10.7;54.4
78793;SHT31;68134;51.984;5.652;2023-04-15T01:07:38;10.7;54.1
78793;SHT31;68134;51.984;5.652;2023-04-15T01:10:08;10.7;54.6
78793;SHT31;68134;51.984;5.652;2023-04-15T01:12:38;10.6;54.7
78793;SHT31;68134;51.984;5.652;2023-04-15T01:15:09;10.6;54.6
78793;SHT31;68134;51.984;5.652;2023-04-15T01:17:39;10.6;54.6
78793;SHT31;68134;51.984;5.652;2023-04-15T01:20:10;10.5;54.8
78793;SHT31;68134;51.984;5.652;2023-04-15T01:22:40;10.5;54.9
78793;SHT31;68134;51.984;5.652;2023-04-15T01:25:14;10.4;54.8
78793;SHT31;68134;51.984;5.652;2023-04-15T01:27:46;10.4;54.7
78793;SHT31;68134;51.984;5.652;2023-04-15T01:30:15;10.3;55.0
78793;SHT31;68134;51.984;5.652;2023-04-15T01:32:45;10.3;55.2
78793;SHT31;68134;51.984;5.652;2023-04-15T01:35:15;10.3;55.4
78793;SHT31;68134;51.984;5.652;2023-04-15T01:37:45;10.2;55.5
78793;SHT31;68134;51.984;5.652;2023-04-15T01:40:17;10.2;55.8
78793;SHT31;68134;51.984;5.652;2023-04-15T01:42:46;10.2;55.6
78793;SHT31;68134;51.984;5.652;2023-04-15T01:45:18;10.1;56.0
78793;SHT31;68134;51.984;5.652;2023-04-15T01:47:48;10.1;55.7
78793;SHT31;68134;51.984;5.652;2023-04-15T01:50:18;10.1;56.2
78793;SHT31;68134;51.984;5.652;2023-04-15T01:52:48;10.0;56.4
78793;SHT31;68134;51.984;5.652;2023-04-15T01:55:20;10.0;56.5
78793;SHT31;68134;51.984;5.652;2023-04-15T01:57:50;10.0;56.8
78793;SHT31;68134;51.984;5.652;2023-04-15T02:00:20;10.0;56.6
78793;SHT31;68134;51.984;5.652;2023-04-15T02:02:51;9.9;57.1
78793;SHT31;68134;51.984;5.652;2023-04-15T02:05:21;9.9;57.1
78793;SHT31;68134;51.984;5.652;2023-04-15T02:07:50;9.9;57.1
78793;SHT31;68134;51.984;5.652;2023-04-15T02:10:20;9.8;57.0
78793;SHT31;68134;51.984;5.652;2023-04-15T02:12:50;9.8;57.3
78793;SHT31;68134;51.984;5.652;2023-04-15T02:15:20;9.8;57.4
78793;SHT31;68134;51.984;5.652;2023-04-15T02:17:50;9.8;57.2
78793;SHT31;68134;51.984;5.652;2023-04-15T02:20:24;9.7;57.5
78793;SHT31;68134;51.984;5.652;2023-04-15T02:22:53;9.7;57.7
78793;SHT31;68134;51.984;5.652;2023-04-15T02:25:23;9.7;57.8
78793;SHT31;68134;51.984;5.652;2023-04-15T02:27:53;9.7;58.2
78793;SHT31;68134;51.984;5.652;2023-04-15T02:30:22;9.6;58.3
78793;SHT31;68134;51.984;5.652;2023-04-15T02:32:53;9.6;58.3
78793;SHT31;68134;51.984;5.652;2023-04-15T02:35:23;9.6;58.6
78793;SHT31;68134;51.984;5.652;2023-04-15T02:37:53;9.6;58.5
78793;SHT31;68134;51.984;5.652;2023-04-15T02:40:22;9.5;58.6
78793;SHT31;68134;51.984;5.652;2023-04-15T02:42:52;9.5;58.7
78793;SHT31;68134;51.984;5.652;2023-04-15T02:45:24;9.5;58.6
78793;SHT31;68134;51.984;5.652;2023-04-15T02:47:54;9.5;58.7
78793;SHT31;68134;51.984;5.652;2023-04-15T02:50:25;9.4;58.9
78793;SHT31;68134;51.984;5.652;2023-04-15T02:52:55;9.4;59.1
78793;SHT31;68134;51.984;5.652;2023-04-15T02:55:25;9.4;59.2
78793;SHT31;68134;51.984;5.652;2023-04-15T02:57:54;9.4;59.5
78793;SHT31;68134;51.984;5.652;2023-04-15T03:00:26;9.3;59.4
78793;SHT31;68134;51.984;5.652;2023-04-15T03:03:01;9.3;59.7
78793;SHT31;68134;51.984;5.652;2023-04-15T03:05:32;9.3;59.7
78793;SHT31;68134;51.984;5.652;2023-04-15T03:08:02;9.3;59.7
78793;SHT31;68134;51.984;5.652;2023-04-15T03:10:31;9.3;60.0
78793;SHT31;68134;51.984;5.652;2023-04-15T03:13:01;9.2;60.0
78793;SHT31;68134;51.984;5.652;2023-04-15T03:15:31;9.2;60.3
78793;SHT31;68134;51.984;5.652;2023-04-15T03:18:01;9.2;60.3
78793;SHT31;68134;51.984;5.652;2023-04-15T03:20:30;9.2;60.3
78793;SHT31;68134;51.984;5.652;2023-04-15T03:23:00;9.2;60.5
78793;SHT31;68134;51.984;5.652;2023-04-15T03:25:30;9.2;60.6
78793;SHT31;68134;51.984;5.652;2023-04-15T03:28:00;9.1;60.6
78793;SHT31;68134;51.984;5.652;2023-04-15T03:30:29;9.1;60.9
78793;SHT31;68134;51.984;5.652;2023-04-15T03:32:59;9.1;60.9
78793;SHT31;68134;51.984;5.652;2023-04-15T03:35:29;9.1;61.2
78793;SHT31;68134;51.984;5.652;2023-04-15T03:37:59;9.1;61.5
78793;SHT31;68134;51.984;5.652;2023-04-15T03:40:28;9.0;61.5
78793;SHT31;68134;51.984;5.652;2023-04-15T03:43:00;9.0;61.6
78793;SHT31;68134;51.984;5.652;2023-04-15T03:45:32;9.0;61.7
78793;SHT31;68134;51.984;5.652;2023-04-15T03:48:02;9.0;61.9
78793;SHT31;68134;51.984;5.652;2023-04-15T03:50:33;8.9;62.3
78793;SHT31;68134;51.984;5.652;2023-04-15T03:53:03;8.9;62.2
78793;SHT31;68134;51.984;5.652;2023-04-15T03:55:33;8.9;62.2
78793;SHT31;68134;51.984;5.652;2023-04-15T03:58:03;8.9;62.4
78793;SHT31;68134;51.984;5.652;2023-04-15T04:00:35;8.9;62.6
78793;SHT31;68134;51.984;5.652;2023-04-15T04:03:04;8.8;62.7
78793;SHT31;68134;51.984;5.652;2023-04-15T04:05:34;8.8;62.8
78793;SHT31;68134;51.984;5.652;2023-04-15T04:08:05;8.8;63.0
78793;SHT31;68134;51.984;5.652;2023-04-15T04:10:37;8.8;63.0
78793;SHT31;68134;51.984;5.652;2023-04-15T04:13:09;8.8;63.2
78793;SHT31;68134;51.984;5.652;2023-04-15T04:15:41;8.8;63.4
78793;SHT31;68134;51.984;5.652;2023-04-15T04:18:10;8.7;63.6
78793;SHT31;68134;51.984;5.652;2023-04-15T04:20:40;8.7;63.7
78793;SHT31;68134;51.984;5.652;2023-04-15T04:23:10;8.7;63.7
78793;SHT31;68134;51.984;5.652;2023-04-15T04:25:40;8.7;63.8
78793;SHT31;68134;51.984;5.652;2023-04-15T04:28:10;8.7;63.9
78793;SHT31;68134;51.984;5.652;2023-04-15T04:30:40;8.6;64.1
78793;SHT31;68134;51.984;5.652;2023-04-15T04:33:10;8.6;64.1
78793;SHT31;68134;51.984;5.652;2023-04-15T04:35:40;8.6;64.3
78793;SHT31;68134;51.984;5.652;2023-04-15T04:38:10;8.6;64.5
78793;SHT31;68134;51.984;5.652;2023-04-15T04:40:40;8.6;64.5
78793;SHT31;68134;51.984;5.652;2023-04-15T04:43:10;8.6;64.7
78793;SHT31;68134;51.984;5.652;2023-04-15T04:45:41;8.5;64.8
78793;SHT31;68134;51.984;5.652;2023-04-15T04:48:10;8.5;64.8
78793;SHT31;68134;51.984;5.652;2023-04-15T04:50:42;8.5;64.9
78793;SHT31;68134;51.984;5.652;2023-04-15T04:53:13;8.5;65.1
78793;SHT31;68134;51.984;5.652;2023-04-15T04:55:44;8.5;65.2
78793;SHT31;68134;51.984;5.652;2023-04-15T04:58:14;8.5;65.3
78793;SHT31;68134;51.984;5.652;2023-04-15T05:00:46;8.5;65.5
78793;SHT31;68134;51.984;5.652;2023-04-15T05:03:15;8.4;65.7
78793;SHT31;68134;51.984;5.652;2023-04-15T05:05:45;8.4;65.5
78793;SHT31;68134;51.984;5.652;2023-04-15T05:08:15;8.4;65.7
78793;SHT31;68134;51.984;5.652;2023-04-15T05:10:45;8.4;65.8
78793;SHT31;68134;51.984;5.652;2023-04-15T05:13:15;8.4;65.9
78793;SHT31;68134;51.984;5.652;2023-04-15T05:15:44;8.4;66.1
78793;SHT31;68134;51.984;5.652;2023-04-15T05:18:14;8.4;66.3
78793;SHT31;68134;51.984;5.652;2023-04-15T05:20:44;8.4;66.3
78793;SHT31;68134;51.984;5.652;2023-04-15T05:23:14;8.4;66.5
78793;SHT31;68134;51.984;5.652;2023-04-15T05:25:44;8.4;66.5
78793;SHT31;68134;51.984;5.652;2023-04-15T05:28:13;8.4;66.7
78793;SHT31;68134;51.984;5.652;2023-04-15T05:30:43;8.4;66.7
78793;SHT31;68134;51.984;5.652;2023-04-15T05:33:15;8.4;66.7
78793;SHT31;68134;51.984;5.652;2023-04-15T05:35:45;8.4;66.9
78793;SHT31;68134;51.984;5.652;2023-04-15T05:38:15;8.4;67.0
78793;SHT31;68134;51.984;5.652;2023-04-15T05:40:44;8.4;67.2
78793;SHT31;68134;51.984;5.652;2023-04-15T05:43:14;8.5;67.3
78793;SHT31;68134;51.984;5.652;2023-04-15T05:45:44;8.5;67.4
78793;SHT31;68134;51.984;5.652;2023-04-15T05:48:13;8.5;67.5
78793;SHT31;68134;51.984;5.652;2023-04-15T05:50:43;8.6;67.7
78793;SHT31;68134;51.984;5.652;2023-04-15T05:53:13;8.6;67.8
78793;SHT31;68134;51.984;5.652;2023-04-15T05:55:43;8.7;67.6
78793;SHT31;68134;51.984;5.652;2023-04-15T05:58:15;8.8;67.3
78793;SHT31;68134;51.984;5.652;2023-04-15T06:00:44;8.9;67.1
78793;SHT31;68134;51.984;5.652;2023-04-15T06:03:14;8.9;67.2
78793;SHT31;68134;51.984;5.652;2023-04-15T06:05:44;9.0;67.0
78793;SHT31;68134;51.984;5.652;2023-04-15T06:08:14;9.1;66.9
78793;SHT31;68134;51.984;5.652;2023-04-15T06:10:44;9.1;66.9
78793;SHT31;68134;51.984;5.652;2023-04-15T06:13:14;9.2;66.8
78793;SHT31;68134;51.984;5.652;2023-04-15T06:15:43;9.3;66.7
78793;SHT31;68134;51.984;5.652;2023-04-15T06:18:13;9.4;66.6
78793;SHT31;68134;51.984;5.652;2023-04-15T06:20:43;9.5;66.4
78793;SHT31;68134;51.984;5.652;2023-04-15T06:23:13;9.5;66.3
78793;SHT31;68134;51.984;5.652;2023-04-15T06:25:42;9.6;66.3
78793;SHT31;68134;51.984;5.652;2023-04-15T06:28:12;9.7;66.4
78793;SHT31;68134;51.984;5.652;2023-04-15T06:30:42;9.8;66.2
78793;SHT31;68134;51.984;5.652;2023-04-15T06:33:12;9.8;66.0
78793;SHT31;68134;51.984;5.652;2023-04-15T06:35:42;9.9;65.8
78793;SHT31;68134;51.984;5.652;2023-04-15T06:38:12;10.0;65.6
78793;SHT31;68134;51.984;5.652;2023-04-15T06:40:41;10.0;65.5
78793;SHT31;68134;51.984;5.652;2023-04-15T06:43:11;10.1;65.6
78793;SHT31;68134;51.984;5.652;2023-04-15T06:45:41;10.1;65.4
78793;SHT31;68134;51.984;5.652;2023-04-15T06:48:11;10.1;65.2
78793;SHT31;68134;51.984;5.652;2023-04-15T06:50:43;10.2;65.5
78793;SHT31;68134;51.984;5.652;2023-04-15T06:53:13;10.2;65.6
78793;SHT31;68134;51.984;5.652;2023-04-15T06:55:43;10.2;65.3
78793;SHT31;68134;51.984;5.652;2023-04-15T06:58:12;10.3;65.4
78793;SHT31;68134;51.984;5.652;2023-04-15T07:00:42;10.3;65.0
78793;SHT31;68134;51.984;5.652;2023-04-15T07:03:12;10.3;65.3
78793;SHT31;68134;51.984;5.652;2023-04-15T07:05:42;10.4;65.1
78793;SHT31;68134;51.984;5.652;2023-04-15T07:08:12;10.4;64.8
78793;SHT31;68134;51.984;5.652;2023-04-15T07:10:42;10.4;64.4
78793;SHT31;68134;51.984;5.652;2023-04-15T07:13:12;10.5;64.1
78793;SHT31;68134;51.984;5.652;2023-04-15T07:15:42;10.5;64.3
78793;SHT31;68134;51.984;5.652;2023-04-15T07:18:12;10.6;64.2
78793;SHT31;68134;51.984;5.652;2023-04-15T07:20:42;10.6;63.7
78793;SHT31;68134;51.984;5.652;2023-04-15T07:23:12;10.7;63.1
78793;SHT31;68134;51.984;5.652;2023-04-15T07:25:41;10.8;62.4
78793;SHT31;68134;51.984;5.652;2023-04-15T07:28:11;10.8;61.7
78793;SHT31;68134;51.984;5.652;2023-04-15T07:30:40;10.9;61.2
78793;SHT31;68134;51.984;5.652;2023-04-15T07:33:10;11.0;61.0
78793;SHT31;68134;51.984;5.652;2023-04-15T07:35:40;11.0;61.0
78793;SHT31;68134;51.984;5.652;2023-04-15T07:38:10;11.1;60.2
78793;SHT31;68134;51.984;5.652;2023-04-15T07:40:41;11.2;59.1
78793;SHT31;68134;51.984;5.652;2023-04-15T07:43:10;11.3;58.1
78793;SHT31;68134;51.984;5.652;2023-04-15T07:45:40;11.4;58.4
78793;SHT31;68134;51.984;5.652;2023-04-15T07:48:10;11.5;57.7
78793;SHT31;68134;51.984;5.652;2023-04-15T07:50:40;11.7;58.2
78793;SHT31;68134;51.984;5.652;2023-04-15T07:53:09;11.9;56.9
78793;SHT31;68134;51.984;5.652;2023-04-15T07:55:39;12.2;57.1
78793;SHT31;68134;51.984;5.652;2023-04-15T07:58:09;12.5;56.1
78793;SHT31;68134;51.984;5.652;2023-04-15T08:00:39;12.8;54.9
78793;SHT31;68134;51.984;5.652;2023-04-15T08:03:08;13.0;53.5
78793;SHT31;68134;51.984;5.652;2023-04-15T08:05:38;13.2;53.8
78793;SHT31;68134;51.984;5.652;2023-04-15T08:08:08;13.4;52.1
78793;SHT31;68134;51.984;5.652;2023-04-15T08:10:38;13.6;51.5
78793;SHT31;68134;51.984;5.652;2023-04-15T08:13:08;13.6;51.8
78793;SHT31;68134;51.984;5.652;2023-04-15T08:15:38;13.7;52.0
78793;SHT31;68134;51.984;5.652;2023-04-15T08:18:07;13.8;51.6
78793;SHT31;68134;51.984;5.652;2023-04-15T08:20:37;13.8;51.7
78793;SHT31;68134;51.984;5.652;2023-04-15T08:23:08;13.9;51.0
78793;SHT31;68134;51.984;5.652;2023-04-15T08:25:37;14.0;51.2
78793;SHT31;68134;51.984;5.652;2023-04-15T08:28:07;14.1;51.3
78793;SHT31;68134;51.984;5.652;2023-04-15T08:30:37;14.2;51.9
78793;SHT31;68134;51.984;5.652;2023-04-15T08:33:07;14.3;51.4
78793;SHT31;68134;51.984;5.652;2023-04-15T08:35:37;14.5;50.1
78793;SHT31;68134;51.984;5.652;2023-04-15T08:38:06;14.6;50.8
78793;SHT31;68134;51.984;5.652;2023-04-15T08:40:40;14.8;50.2
78793;SHT31;68134;51.984;5.652;2023-04-15T08:43:14;15.0;49.5
78793;SHT31;68134;51.984;5.652;2023-04-15T08:45:47;15.3;49.2
78793;SHT31;68134;51.984;5.652;2023-04-15T08:48:19;15.5;47.6
78793;SHT31;68134;51.984;5.652;2023-04-15T08:50:50;15.7;46.3
78793;SHT31;68134;51.984;5.652;2023-04-15T08:53:20;15.9;46.1
78793;SHT31;68134;51.984;5.652;2023-04-15T08:55:51;15.9;46.2
78793;SHT31;68134;51.984;5.652;2023-04-15T08:58:21;16.0;46.2
78793;SHT31;68134;51.984;5.652;2023-04-15T09:00:52;16.1;45.3
78793;SHT31;68134;51.984;5.652;2023-04-15T09:03:22;16.1;46.0
78793;SHT31;68134;51.984;5.652;2023-04-15T09:05:53;16.2;45.6
78793;SHT31;68134;51.984;5.652;2023-04-15T09:08:23;16.2;46.2
78793;SHT31;68134;51.984;5.652;2023-04-15T09:10:56;16.3;45.8
78793;SHT31;68134;51.984;5.652;2023-04-15T09:13:26;16.3;46.1
78793;SHT31;68134;51.984;5.652;2023-04-15T09:15:56;16.4;45.9
78793;SHT31;68134;51.984;5.652;2023-04-15T09:18:31;16.4;47.0
78793;SHT31;68134;51.984;5.652;2023-04-15T09:21:06;16.5;45.3
78793;SHT31;68134;51.984;5.652;2023-04-15T09:23:39;16.6;45.1
78793;SHT31;68134;51.984;5.652;2023-04-15T09:26:09;16.6;45.9
78793;SHT31;68134;51.984;5.652;2023-04-15T09:28:42;16.6;45.4
78793;SHT31;68134;51.984;5.652;2023-04-15T09:31:12;16.7;45.1
78793;SHT31;68134;51.984;5.652;2023-04-15T09:33:55;16.7;45.9
78793;SHT31;68134;51.984;5.652;2023-04-15T09:36:25;16.8;45.7
78793;SHT31;68134;51.984;5.652;2023-04-15T09:38:57;16.8;46.2
78793;SHT31;68134;51.984;5.652;2023-04-15T09:41:28;17.0;45.3
78793;SHT31;68134;51.984;5.652;2023-04-15T09:44:00;17.1;44.4
78793;SHT31;68134;51.984;5.652;2023-04-15T09:46:43;17.3;42.8
78793;SHT31;68134;51.984;5.652;2023-04-15T09:49:13;17.5;42.4
78793;SHT31;68134;51.984;5.652;2023-04-15T09:51:44;17.7;42.6
78793;SHT31;68134;51.984;5.652;2023-04-15T09:54:18;17.9;41.7
78793;SHT31;68134;51.984;5.652;2023-04-15T09:56:48;18.0;42.1
78793;SHT31;68134;51.984;5.652;2023-04-15T09:59:17;18.2;41.7
78793;SHT31;68134;51.984;5.652;2023-04-15T10:01:48;18.4;43.0
78793;SHT31;68134;51.984;5.652;2023-04-15T10:04:17;18.6;41.6
78793;SHT31;68134;51.984;5.652;2023-04-15T10:06:47;18.8;40.9
78793;SHT31;68134;51.984;5.652;2023-04-15T10:09:17;19.0;40.2
78793;SHT31;68134;51.984;5.652;2023-04-15T10:11:48;19.1;39.7
78793;SHT31;68134;51.984;5.652;2023-04-15T10:14:21;19.2;39.0
78793;SHT31;68134;51.984;5.652;2023-04-15T10:16:55;19.3;39.6
78793;SHT31;68134;51.984;5.652;2023-04-15T10:19:30;19.4;40.8
78793;SHT31;68134;51.984;5.652;2023-04-15T10:22:00;19.5;39.8
78793;SHT31;68134;51.984;5.652;2023-04-15T10:24:31;19.6;39.2
78793;SHT31;68134;51.984;5.652;2023-04-15T10:27:02;19.6;38.7
78793;SHT31;68134;51.984;5.652;2023-04-15T10:29:33;19.6;38.5
78793;SHT31;68134;51.984;5.652;2023-04-15T10:32:04;19.6;38.5
78793;SHT31;68134;51.984;5.652;2023-04-15T10:34:34;19.6;39.1
78793;SHT31;68134;51.984;5.652;2023-04-15T10:37:04;19.6;40.3
78793;SHT31;68134;51.984;5.652;2023-04-15T10:39:44;19.6;39.5
78793;SHT31;68134;51.984;5.652;2023-04-15T10:42:16;19.6;39.3
78793;SHT31;68134;51.984;5.652;2023-04-15T10:44:48;19.6;39.2
78793;SHT31;68134;51.984;5.652;2023-04-15T10:47:20;19.6;39.3
78793;SHT31;68134;51.984;5.652;2023-04-15T10:49:51;19.6;39.5
78793;SHT31;68134;51.984;5.652;2023-04-15T10:52:26;19.5;40.0
78793;SHT31;68134;51.984;5.652;2023-04-15T10:55:13;19.5;40.7
78793;SHT31;68134;51.984;5.652;2023-04-15T10:57:46;19.7;39.8
78793;SHT31;68134;51.984;5.652;2023-04-15T11:00:23;19.9;39.8
78793;SHT31;68134;51.984;5.652;2023-04-15T11:02:56;20.2;39.6
78793;SHT31;68134;51.984;5.652;2023-04-15T11:05:48;20.4;39.1
78793;SHT31;68134;51.984;5.652;2023-04-15T11:08:18;20.7;38.0
78793;SHT31;68134;51.984;5.652;2023-04-15T11:10:52;20.8;37.3
78793;SHT31;68134;51.984;5.652;2023-04-15T11:13:26;20.8;37.6
78793;SHT31;68134;51.984;5.652;2023-04-15T11:16:01;21.0;38.7
78793;SHT31;68134;51.984;5.652;2023-04-15T11:18:33;21.1;37.3
78793;SHT31;68134;51.984;5.652;2023-04-15T11:21:05;21.1;36.9
78793;SHT31;68134;51.984;5.652;2023-04-15T11:23:40;21.1;36.5
78793;SHT31;68134;51.984;5.652;2023-04-15T11:26:13;21.1;36.8
78793;SHT31;68134;51.984;5.652;2023-04-15T11:28:44;21.1;36.8
78793;SHT31;68134;51.984;5.652;2023-04-15T11:31:15;21.2;37.9
78793;SHT31;68134;51.984;5.652;2023-04-15T11:33:57;21.3;35.9
78793;SHT31;68134;51.984;5.652;2023-04-15T11:36:29;21.4;36.2
78793;SHT31;68134;51.984;5.652;2023-04-15T11:39:00;21.5;36.2
78793;SHT31;68134;51.984;5.652;2023-04-15T11:41:30;21.5;35.5
78793;SHT31;68134;51.984;5.652;2023-04-15T11:44:00;21.4;34.1
78793;SHT31;68134;51.984;5.652;2023-04-15T11:46:30;21.4;34.8
78793;SHT31;68134;51.984;5.652;2023-04-15T11:49:00;21.3;35.3
78793;SHT31;68134;51.984;5.652;2023-04-15T11:51:33;21.3;35.6
78793;SHT31;68134;51.984;5.652;2023-04-15T11:54:03;21.3;35.1
78793;SHT31;68134;51.984;5.652;2023-04-15T11:56:33;21.3;36.2
78793;SHT31;68134;51.984;5.652;2023-04-15T11:59:02;21.3;35.8
78793;SHT31;68134;51.984;5.652;2023-04-15T12:01:33;21.3;35.2
78793;SHT31;68134;51.984;5.652;2023-04-15T12:04:13;21.3;36.6
78793;SHT31;68134;51.984;5.652;2023-04-15T12:06:44;21.4;36.1
78793;SHT31;68134;51.984;5.652;2023-04-15T12:09:15;21.5;34.7
78793;SHT31;68134;51.984;5.652;2023-04-15T12:11:48;21.5;34.5
78793;SHT31;68134;51.984;5.652;2023-04-15T12:14:24;21.4;34.0
78793;SHT31;68134;51.984;5.652;2023-04-15T12:16:57;21.3;34.5
78793;SHT31;68134;51.984;5.652;2023-04-15T12:19:29;21.1;35.0
78793;SHT31;68134;51.984;5.652;2023-04-15T12:22:00;21.0;35.2
78793;SHT31;68134;51.984;5.652;2023-04-15T12:24:33;20.9;36.1
78793;SHT31;68134;51.984;5.652;2023-04-15T12:27:05;20.9;36.7
78793;SHT31;68134;51.984;5.652;2023-04-15T12:29:37;20.9;37.0
78793;SHT31;68134;51.984;5.652;2023-04-15T12:32:09;20.9;38.0
78793;SHT31;68134;51.984;5.652;2023-04-15T12:34:40;21.0;36.0
78793;SHT31;68134;51.984;5.652;2023-04-15T12:37:11;21.0;36.2
78793;SHT31;68134;51.984;5.652;2023-04-15T12:39:47;21.1;36.4
78793;SHT31;68134;51.984;5.652;2023-04-15T12:42:17;21.0;36.2
78793;SHT31;68134;51.984;5.652;2023-04-15T12:44:49;21.0;35.8
78793;SHT31;68134;51.984;5.652;2023-04-15T12:47:18;20.8;36.0
78793;SHT31;68134;51.984;5.652;2023-04-15T12:49:48;20.7;36.2
78793;SHT31;68134;51.984;5.652;2023-04-15T12:52:18;20.6;36.5
78793;SHT31;68134;51.984;5.652;2023-04-15T12:54:50;20.6;38.3
78793;SHT31;68134;51.984;5.652;2023-04-15T12:57:22;20.7;37.4
78793;SHT31;68134;51.984;5.652;2023-04-15T12:59:52;21.0;37.0
78793;SHT31;68134;51.984;5.652;2023-04-15T13:02:21;21.4;36.6
78793;SHT31;68134;51.984;5.652;2023-04-15T13:04:53;21.6;34.4
78793;SHT31;68134;51.984;5.652;2023-04-15T13:07:23;21.7;35.3
78793;SHT31;68134;51.984;5.652;2023-04-15T13:09:53;21.7;34.9
78793;SHT31;68134;51.984;5.652;2023-04-15T13:12:23;21.6;35.5
78793;SHT31;68134;51.984;5.652;2023-04-15T13:14:53;21.4;34.7
78793;SHT31;68134;51.984;5.652;2023-04-15T13:17:23;21.2;34.9
78793;SHT31;68134;51.984;5.652;2023-04-15T13:19:52;21.0;35.8
78793;SHT31;68134;51.984;5.652;2023-04-15T13:22:22;20.8;36.3
78793;SHT31;68134;51.984;5.652;2023-04-15T13:24:52;20.7;36.2
78793;SHT31;68134;51.984;5.652;2023-04-15T13:27:21;20.6;36.7
78793;SHT31;68134;51.984;5.652;2023-04-15T13:29:51;20.5;37.0
78793;SHT31;68134;51.984;5.652;2023-04-15T13:32:21;20.3;38.4
78793;SHT31;68134;51.984;5.652;2023-04-15T13:34:50;20.2;38.3
78793;SHT31;68134;51.984;5.652;2023-04-15T13:37:24;20.2;38.4
78793;SHT31;68134;51.984;5.652;2023-04-15T13:39:55;20.2;39.7
78793;SHT31;68134;51.984;5.652;2023-04-15T13:42:25;20.2;38.4
78793;SHT31;68134;51.984;5.652;2023-04-15T13:44:55;20.2;37.5
78793;SHT31;68134;51.984;5.652;2023-04-15T13:47:25;20.1;37.5
78793;SHT31;68134;51.984;5.652;2023-04-15T13:49:55;19.9;38.5
78793;SHT31;68134;51.984;5.652;2023-04-15T13:52:27;19.8;37.9
78793;SHT31;68134;51.984;5.652;2023-04-15T13:54:56;19.6;38.8
78793;SHT31;68134;51.984;5.652;2023-04-15T13:57:26;19.5;39.8
78793;SHT31;68134;51.984;5.652;2023-04-15T13:59:58;19.4;39.8
78793;SHT31;68134;51.984;5.652;2023-04-15T14:02:28;19.3;39.6
78793;SHT31;68134;51.984;5.652;2023-04-15T14:04:58;19.3;40.0
78793;SHT31;68134;51.984;5.652;2023-04-15T14:07:28;19.2;39.9
78793;SHT31;68134;51.984;5.652;2023-04-15T14:09:59;19.2;39.1
78793;SHT31;68134;51.984;5.652;2023-04-15T14:12:29;19.1;40.3
78793;SHT31;68134;51.984;5.652;2023-04-15T14:14:58;19.0;41.1
78793;SHT31;68134;51.984;5.652;2023-04-15T14:17:28;18.9;41.5
78793;SHT31;68134;51.984;5.652;2023-04-15T14:19:58;18.8;41.5
78793;SHT31;68134;51.984;5.652;2023-04-15T14:22:28;18.7;40.8
78793;SHT31;68134;51.984;5.652;2023-04-15T14:24:57;18.6;41.4
78793;SHT31;68134;51.984;5.652;2023-04-15T14:27:28;18.5;41.3
78793;SHT31;68134;51.984;5.652;2023-04-15T14:29:57;18.4;41.0
78793;SHT31;68134;51.984;5.652;2023-04-15T14:32:27;18.3;41.5
78793;SHT31;68134;51.984;5.652;2023-04-15T14:34:57;18.2;41.7
78793;SHT31;68134;51.984;5.652;2023-04-15T14:37:27;18.0;42.2
78793;SHT31;68134;51.984;5.652;2023-04-15T14:39:56;17.9;42.9
78793;SHT31;68134;51.984;5.652;2023-04-15T14:42:26;17.8;43.3
78793;SHT31;68134;51.984;5.652;2023-04-15T14:44:56;17.7;43.3
78793;SHT31;68134;51.984;5.652;2023-04-15T14:47:25;17.6;44.0
78793;SHT31;68134;51.984;5.652;2023-04-15T14:49:55;17.4;44.0
78793;SHT31;68134;51.984;5.652;2023-04-15T14:52:25;17.3;44.1
78793;SHT31;68134;51.984;5.652;2023-04-15T14:54:54;17.1;43.6
78793;SHT31;68134;51.984;5.652;2023-04-15T14:57:25;17.0;44.0
78793;SHT31;68134;51.984;5.652;2023-04-15T14:59:54;16.8;44.5
78793;SHT31;68134;51.984;5.652;2023-04-15T15:02:25;16.7;45.1
78793;SHT31;68134;51.984;5.652;2023-04-15T15:04:57;16.6;45.6
78793;SHT31;68134;51.984;5.652;2023-04-15T15:07:27;16.5;45.7
78793;SHT31;68134;51.984;5.652;2023-04-15T15:09:57;16.5;46.2
78793;SHT31;68134;51.984;5.652;2023-04-15T15:12:27;16.4;46.4
78793;SHT31;68134;51.984;5.652;2023-04-15T15:14:56;16.3;46.7
78793;SHT31;68134;51.984;5.652;2023-04-15T15:17:26;16.2;47.3
78793;SHT31;68134;51.984;5.652;2023-04-15T15:19:56;16.2;47.2
78793;SHT31;68134;51.984;5.652;2023-04-15T15:22:26;16.1;47.7
78793;SHT31;68134;51.984;5.652;2023-04-15T15:24:55;16.1;48.2
78793;SHT31;68134;51.984;5.652;2023-04-15T15:27:29;16.0;48.0
78793;SHT31;68134;51.984;5.652;2023-04-15T15:30:00;16.0;48.3
78793;SHT31;68134;51.984;5.652;2023-04-15T15:32:30;15.9;48.0
78793;SHT31;68134;51.984;5.652;2023-04-15T15:35:00;15.8;47.7
78793;SHT31;68134;51.984;5.652;2023-04-15T15:37:30;15.7;47.7
78793;SHT31;68134;51.984;5.652;2023-04-15T15:40:00;15.7;48.2
78793;SHT31;68134;51.984;5.652;2023-04-15T15:42:31;15.6;48.8
78793;SHT31;68134;51.984;5.652;2023-04-15T15:45:02;15.6;48.4
78793;SHT31;68134;51.984;5.652;2023-04-15T15:47:32;15.6;48.6
78793;SHT31;68134;51.984;5.652;2023-04-15T15:50:01;15.5;48.4
78793;SHT31;68134;51.984;5.652;2023-04-15T15:52:31;15.4;48.5
78793;SHT31;68134;51.984;5.652;2023-04-15T15:55:01;15.3;48.7
78793;SHT31;68134;51.984;5.652;2023-04-15T15:57:30;15.3;49.1
78793;SHT31;68134;51.984;5.652;2023-04-15T16:00:00;15.2;48.9
78793;SHT31;68134;51.984;5.652;2023-04-15T16:02:30;15.1;50.1
78793;SHT31;68134;51.984;5.652;2023-04-15T16:05:00;15.1;50.1
78793;SHT31;68134;51.984;5.652;2023-04-15T16:07:30;15.1;49.9
78793;SHT31;68134;51.984;5.652;2023-04-15T16:09:59;15.1;49.8
78793;SHT31;68134;51.984;5.652;2023-04-15T16:12:30;15.0;49.5
78793;SHT31;68134;51.984;5.652;2023-04-15T16:15:01;15.0;50.1
78793;SHT31;68134;51.984;5.652;2023-04-15T16:17:31;14.9;50.1
78793;SHT31;68134;51.984;5.652;2023-04-15T16:20:02;14.9;50.5
78793;SHT31;68134;51.984;5.652;2023-04-15T16:22:34;14.8;50.6
78793;SHT31;68134;51.984;5.652;2023-04-15T16:25:04;14.7;51.1
78793;SHT31;68134;51.984;5.652;2023-04-15T16:27:34;14.7;50.9
78793;SHT31;68134;51.984;5.652;2023-04-15T16:30:05;14.6;51.6